MOOI WEER BOXTEL

Weerstation in Boxtel

Actuele weerinformatie en voorspellingen


Onweer radar Meer informatie blitzortung!


waarschuwing voor winterse neerslag Meer informatie rain snow radar


Meer informatie

Template documentation
and downloads

Weblog Hans on Experience

Profiel Hans Mestrum



Sneeuw/IJzel/Bevriezing van: 20-01-2018 02:00 tot: 09:59 waarschuwing voor: Sneeuw/IJzel/Bevriezing niveau: Geel info button
Plaatselijke gladheid door bevriezing van natte weggedeelten. Ook ten gevolge van winterse buien kan het glad worden.Kans op gladheid. Alle verkeersdeelnemers kunnen hinder ondervinden. Pas uw rijgedrag aan. Volg weerberichten en waarschuwingen.

METAR rapporten vliegvelden

   
EHEH - Eindhoven
Gewijzigd: 20-01-2018 01:55
Grotendeels bewolkt  
Grotendeels bewolkt  
   Wind: ZZW 16.7 km/h
Wind: ZZW 16.7 km/h
Temperatuur: 2°C
Voelt als: -2°C
Dauwpunt: 1°C
Vochtigheid: 93%
Barometer: 1008 hPa
Bewolking: Grotendeels bewolkt
Zicht: meer dan 10 km
Bewolking: Licht bewolkt 1500 ft,
Gedeeltelijk bewolkt 5100 ft,
Grotendeels bewolkt 5700 ft
EHEH 200055Z AUTO 20009KT 9999 FEW015CB SCT051 BKN057 02/01 Q1008 BLU
EHVK - Volkel
Gewijzigd: 20-01-2018 01:55
Grotendeels bewolkt  
Grotendeels bewolkt  
   Wind: ZZW 16.7 km/h
Wind: ZZW 16.7 km/h
Temperatuur: 1°C
Voelt als: -3°C
Dauwpunt: 0°C
Vochtigheid: 93%
Barometer: 1008 hPa
Bewolking: Grotendeels bewolkt
Zicht: meer dan 10 km
Bewolking: Licht bewolkt 1500 ft,
Grotendeels bewolkt 3100 ft,
Grotendeels bewolkt 3500 ft
EHVK 200055Z AUTO 21009KT 180V250 9999 FEW015CB BKN031 BKN035 01/00 Q1008 BLU
EBAW - Antwerpen
Gewijzigd: 20-01-2018 01:50
Helder  
Helder  
   Wind: ZW 14.8 km/h
Wind: ZW 14.8 km/h
Temperatuur: 3°C
Voelt als: -1°C
Dauwpunt: 1°C
Vochtigheid: 87%
Barometer: 1009 hPa
Zicht: meer dan 10 km
Bewolking: Helder
EBAW 200050Z AUTO 22008KT 180V240 CAVOK 03/01 Q1009
EHBK - Maastricht
Gewijzigd: 20-01-2018 01:55
Bewolking  
Bewolking  
   Wind: ZW 22.2 km/h
Wind: ZW 22.2 km/h
Temperatuur: 2°C
Voelt als: -3°C
Dauwpunt: 1°C
Vochtigheid: 93%
Barometer: 1010 hPa
Bewolking: Bewolking
Zicht: meer dan 10 km
Bewolking: Grotendeels bewolkt 800 ft,
Bewolking 1000 ft
EHBK 200055Z AUTO 22012KT 9999 BKN008 OVC010 02/01 Q1010
ELLX - Luxemburg
Gewijzigd: 20-01-2018 01:50
Mogelijk wat sneeuw, Mist, Grotendeels bewolkt  
Mogelijk wat sneeuw, Mist, Grotendeels bewolkt  
   Wind: ZW 13 km/h
Wind: ZW 13 km/h
Temperatuur: 0°C
Voelt als: -4°C
Dauwpunt: 0°C
Vochtigheid: 100%
Barometer: 1011 hPa
Bewolking: Grotendeels bewolkt
Zicht: 1 km
Bewolking: Gedeeltelijk bewolkt,
Grotendeels bewolkt 200 ft,
Grotendeels bewolkt 500 ft
ELLX 200050Z AUTO 23007KT 0900 R24/P2000N -SN FG SCT000/// BKN002/// BKN005/// 00/00 Q1011 NOSIG
 

Script ontwikkeld door  Saratoga-weather.org Aangepast voor de template door  Weerstation Leuven

U vindt ons ook hier:

Het Weer Aktueel

UK Metoffice

European Weather Network

Weather Underground

AWEKAS

Citizen Weather Observer Program (CWOP)

HAMweather, WeatherForYou, PWS Weather

Apparatuur in gebruik:

Weerstation
Davis Vue ISS

Weerprogramma
Meteobridge

Weercomputer
Asus WL -330N3G

Webleverancier
Weerhuisje.nl

Davis Vue ISS

Meteobridge

Asus WL -330N3G

Weerhuisje.nl